GLD080 SNMZ-SBBE
Flight info
| Callsign | GLD080 |
|---|---|
| Flight time | N/A |
| Altitude | 19000 |
| Route | DCT PUNEN |
| Aircraft | B350/M-SDFGIRY/S |
Departure
| Time | N/A |
|---|---|
| Airport | Porto de Moz Airport (SNMZ) |
Arrival
| Time | 2026-05-01 13:43 |
|---|---|
| Airport | Val de Cans/Júlio Cezar Ribeiro International Airport (SBBE) |
| Time | Latitude | Longitude | Altitude | Speed | Heading |
|---|---|---|---|---|---|
| 2026-05-01 13:00 | -1.66078 | -51.35874 | 18990 ft | 287 kts | 86° |
| 2026-05-01 13:01 | -1.65756 | -51.31899 | 18991 ft | 287 kts | 85° |
| 2026-05-01 13:01 | -1.65546 | -51.29914 | 18991 ft | 287 kts | 85° |
| 2026-05-01 13:01 | -1.65149 | -51.25977 | 18991 ft | 287 kts | 85° |
| 2026-05-01 13:02 | -1.64960 | -51.23992 | 18992 ft | 287 kts | 86° |
| 2026-05-01 13:07 | -1.61033 | -50.82440 | 18989 ft | 284 kts | 85° |
| 2026-05-01 13:07 | -1.60847 | -50.80473 | 18988 ft | 284 kts | 85° |
| 2026-05-01 13:07 | -1.60667 | -50.78507 | 18986 ft | 284 kts | 85° |
| 2026-05-01 13:08 | -1.60480 | -50.76534 | 18984 ft | 284 kts | 84° |
| 2026-05-01 13:08 | -1.60265 | -50.74569 | 18983 ft | 284 kts | 84° |
| 2026-05-01 13:08 | -1.60092 | -50.72601 | 18986 ft | 284 kts | 85° |
| 2026-05-01 13:08 | -1.59905 | -50.70632 | 18985 ft | 284 kts | 84° |
| 2026-05-01 13:09 | -1.59708 | -50.68664 | 18989 ft | 284 kts | 84° |
| 2026-05-01 13:09 | -1.59522 | -50.66692 | 18988 ft | 284 kts | 85° |
| 2026-05-01 13:09 | -1.59355 | -50.64724 | 18988 ft | 284 kts | 84° |
| 2026-05-01 13:09 | -1.59172 | -50.62759 | 18988 ft | 284 kts | 85° |
| 2026-05-01 13:10 | -1.58985 | -50.60817 | 18990 ft | 284 kts | 83° |
| 2026-05-01 13:10 | -1.58750 | -50.58850 | 18989 ft | 284 kts | 84° |
| 2026-05-01 13:10 | -1.58572 | -50.56880 | 18987 ft | 284 kts | 84° |
| 2026-05-01 13:10 | -1.58419 | -50.54912 | 18986 ft | 284 kts | 85° |
| 2026-05-01 13:11 | -1.58214 | -50.52944 | 18988 ft | 284 kts | 83° |
| 2026-05-01 13:11 | -1.58008 | -50.50975 | 18986 ft | 284 kts | 84° |
| 2026-05-01 13:11 | -1.57831 | -50.49003 | 18982 ft | 284 kts | 84° |
| 2026-05-01 13:11 | -1.57657 | -50.47032 | 18988 ft | 284 kts | 84° |
| 2026-05-01 13:12 | -1.57483 | -50.45065 | 18989 ft | 285 kts | 84° |
| 2026-05-01 13:12 | -1.57312 | -50.43088 | 18986 ft | 285 kts | 84° |
| 2026-05-01 13:12 | -1.57111 | -50.41120 | 18988 ft | 285 kts | 84° |
| 2026-05-01 13:12 | -1.56911 | -50.39176 | 18984 ft | 285 kts | 84° |
| 2026-05-01 13:13 | -1.56722 | -50.37202 | 18988 ft | 285 kts | 84° |
| 2026-05-01 13:13 | -1.56540 | -50.35230 | 18989 ft | 285 kts | 84° |
| 2026-05-01 13:13 | -1.56357 | -50.33253 | 18989 ft | 285 kts | 84° |
| 2026-05-01 13:13 | -1.56187 | -50.31272 | 18986 ft | 286 kts | 85° |
| 2026-05-01 13:14 | -1.55996 | -50.29297 | 18989 ft | 286 kts | 83° |
| 2026-05-01 13:14 | -1.55783 | -50.27322 | 18989 ft | 286 kts | 84° |
| 2026-05-01 13:14 | -1.55587 | -50.25345 | 18989 ft | 286 kts | 84° |
| 2026-05-01 13:14 | -1.55398 | -50.23366 | 18983 ft | 286 kts | 84° |
| 2026-05-01 13:15 | -1.55216 | -50.21379 | 18988 ft | 286 kts | 84° |
| 2026-05-01 13:15 | -1.55032 | -50.19428 | 18988 ft | 286 kts | 84° |
| 2026-05-01 13:15 | -1.54864 | -50.17446 | 18988 ft | 286 kts | 85° |
| 2026-05-01 13:15 | -1.54691 | -50.15466 | 18984 ft | 286 kts | 84° |
| 2026-05-01 13:16 | -1.54492 | -50.13487 | 18991 ft | 286 kts | 84° |
| 2026-05-01 13:16 | -1.54288 | -50.11504 | 18983 ft | 286 kts | 84° |
| 2026-05-01 13:16 | -1.54109 | -50.09520 | 18985 ft | 287 kts | 84° |
| 2026-05-01 13:17 | -1.53533 | -50.03567 | 18988 ft | 287 kts | 84° |
| 2026-05-01 13:17 | -1.53333 | -50.01580 | 18985 ft | 287 kts | 84° |
| 2026-05-01 13:18 | -1.52936 | -49.97641 | 18982 ft | 287 kts | 84° |
| 2026-05-01 13:18 | -1.52757 | -49.95656 | 18986 ft | 286 kts | 84° |
| 2026-05-01 13:18 | -1.52560 | -49.93675 | 18983 ft | 286 kts | 84° |
| 2026-05-01 13:18 | -1.52375 | -49.91696 | 18984 ft | 286 kts | 84° |
| 2026-05-01 13:19 | -1.52199 | -49.89720 | 18983 ft | 285 kts | 84° |
| 2026-05-01 13:19 | -1.52022 | -49.87740 | 18986 ft | 285 kts | 84° |
| 2026-05-01 13:19 | -1.51692 | -49.83786 | 18984 ft | 285 kts | 84° |
| 2026-05-01 13:20 | -1.51492 | -49.81837 | 18985 ft | 285 kts | 83° |
| 2026-05-01 13:20 | -1.51274 | -49.79865 | 18984 ft | 285 kts | 84° |
| 2026-05-01 13:20 | -1.51071 | -49.77890 | 18982 ft | 285 kts | 84° |
| 2026-05-01 13:21 | -1.50670 | -49.73947 | 18982 ft | 285 kts | 84° |
| 2026-05-01 13:21 | -1.50498 | -49.71970 | 18982 ft | 285 kts | 84° |
| 2026-05-01 13:21 | -1.50346 | -49.69994 | 18976 ft | 285 kts | 84° |
| 2026-05-01 13:21 | -1.50217 | -49.68691 | 18983 ft | 285 kts | 83° |
| 2026-05-01 13:22 | -1.50157 | -49.68135 | 18980 ft | 285 kts | 83° |
| 2026-05-01 13:22 | -1.49948 | -49.66167 | 18983 ft | 284 kts | 83° |
| 2026-05-01 13:22 | -1.49758 | -49.64203 | 18982 ft | 284 kts | 84° |
| 2026-05-01 13:22 | -1.49581 | -49.62262 | 18980 ft | 284 kts | 84° |
| 2026-05-01 13:23 | -1.49402 | -49.60296 | 18983 ft | 284 kts | 84° |
| 2026-05-01 13:23 | -1.49217 | -49.58327 | 18984 ft | 284 kts | 84° |
| 2026-05-01 13:23 | -1.49031 | -49.56386 | 18982 ft | 284 kts | 83° |
| 2026-05-01 13:23 | -1.48841 | -49.54420 | 18981 ft | 284 kts | 83° |
| 2026-05-01 13:24 | -1.48652 | -49.52457 | 18981 ft | 284 kts | 84° |
| 2026-05-01 13:24 | -1.48464 | -49.50490 | 18979 ft | 284 kts | 84° |
| 2026-05-01 13:24 | -1.48278 | -49.48530 | 18979 ft | 283 kts | 83° |
| 2026-05-01 13:25 | -1.47911 | -49.44682 | 18975 ft | 283 kts | 83° |
| 2026-05-01 13:25 | -1.47723 | -49.42722 | 18976 ft | 283 kts | 83° |
| 2026-05-01 13:25 | -1.47536 | -49.40764 | 18981 ft | 283 kts | 83° |
| 2026-05-01 13:25 | -1.47347 | -49.38799 | 18981 ft | 283 kts | 83° |
| 2026-05-01 13:26 | -1.47160 | -49.36844 | 18980 ft | 283 kts | 83° |
| 2026-05-01 13:26 | -1.46974 | -49.34886 | 18975 ft | 283 kts | 83° |
| 2026-05-01 13:26 | -1.46828 | -49.32978 | 18980 ft | 272 kts | 85° |
| 2026-05-01 13:26 | -1.46659 | -49.31074 | 18827 ft | 280 kts | 83° |
| 2026-05-01 13:27 | -1.46453 | -49.29116 | 18497 ft | 286 kts | 83° |
| 2026-05-01 13:27 | -1.46237 | -49.27152 | 18157 ft | 285 kts | 83° |
| 2026-05-01 13:27 | -1.45867 | -49.23301 | 17388 ft | 273 kts | 83° |
| 2026-05-01 13:28 | -1.45522 | -49.19569 | 16645 ft | 266 kts | 84° |
| 2026-05-01 13:28 | -1.45354 | -49.17741 | 16278 ft | 263 kts | 84° |
| 2026-05-01 13:29 | -1.45460 | -49.14127 | 15567 ft | 261 kts | 95° |
| 2026-05-01 13:29 | -1.45957 | -49.10547 | 14860 ft | 256 kts | 97° |
| 2026-05-01 13:30 | -1.47352 | -49.03666 | 13465 ft | 252 kts | 101° |
| 2026-05-01 13:31 | -1.48164 | -49.00271 | 12713 ft | 250 kts | 100° |
| 2026-05-01 13:31 | -1.49281 | -48.95206 | 11622 ft | 249 kts | 100° |
| 2026-05-01 13:32 | -1.50050 | -48.91832 | 10911 ft | 248 kts | 100° |
| 2026-05-01 13:33 | -1.51193 | -48.86792 | 9865 ft | 247 kts | 99° |
| 2026-05-01 13:33 | -1.51948 | -48.83452 | 9113 ft | 246 kts | 100° |
| 2026-05-01 13:34 | -1.52701 | -48.80153 | 8373 ft | 244 kts | 102° |
| 2026-05-01 13:34 | -1.53475 | -48.76860 | 7646 ft | 242 kts | 101° |
| 2026-05-01 13:35 | -1.54177 | -48.73615 | 6937 ft | 231 kts | 100° |
| 2026-05-01 13:35 | -1.54495 | -48.72054 | 6582 ft | 227 kts | 101° |
| 2026-05-01 13:35 | -1.55218 | -48.69006 | 5863 ft | 224 kts | 103° |
| 2026-05-01 13:36 | -1.55520 | -48.67763 | 5564 ft | 222 kts | 103° |
| 2026-05-01 13:36 | -1.55872 | -48.66264 | 5199 ft | 221 kts | 102° |
| 2026-05-01 13:36 | -1.56535 | -48.63311 | 4484 ft | 218 kts | 102° |
| 2026-05-01 13:37 | -1.56866 | -48.61831 | 4125 ft | 218 kts | 102° |
| 2026-05-01 13:37 | -1.57083 | -48.60853 | 3886 ft | 217 kts | 102° |
| 2026-05-01 13:37 | -1.57518 | -48.58883 | 3387 ft | 216 kts | 99° |
| 2026-05-01 13:37 | -1.57539 | -48.57383 | 3049 ft | 215 kts | 87° |
| 2026-05-01 13:38 | -1.57210 | -48.54513 | 2771 ft | 202 kts | 80° |
| 2026-05-01 13:38 | -1.56892 | -48.53167 | 2922 ft | 197 kts | 76° |
| 2026-05-01 13:38 | -1.56509 | -48.51848 | 3000 ft | 198 kts | 75° |
| 2026-05-01 13:39 | -1.56102 | -48.50528 | 2912 ft | 199 kts | 71° |
| 2026-05-01 13:39 | -1.55246 | -48.49456 | 2577 ft | 209 kts | 36° |
| 2026-05-01 13:39 | -1.53861 | -48.48948 | 2215 ft | 215 kts | 17° |
| 2026-05-01 13:39 | -1.52362 | -48.48734 | 1899 ft | 217 kts | 8° |
| 2026-05-01 13:40 | -1.50870 | -48.48664 | 1749 ft | 211 kts | 5° |
| 2026-05-01 13:40 | -1.49430 | -48.48607 | 1661 ft | 202 kts | 6° |
| 2026-05-01 13:40 | -1.48053 | -48.48520 | 1632 ft | 195 kts | 8° |
| 2026-05-01 13:40 | -1.46721 | -48.48404 | 1621 ft | 189 kts | 9° |
| 2026-05-01 13:41 | -1.45863 | -48.48311 | 1609 ft | 186 kts | 10° |
| 2026-05-01 13:41 | -1.44249 | -48.48152 | 1605 ft | 167 kts | 8° |
| 2026-05-01 13:41 | -1.43215 | -48.48076 | 1593 ft | 128 kts | 5° |
| 2026-05-01 13:41 | -1.42379 | -48.48025 | 1332 ft | 113 kts | 10° |
| 2026-05-01 13:42 | -1.41607 | -48.47958 | 970 ft | 111 kts | 8° |
| 2026-05-01 13:42 | -1.41094 | -48.47941 | 818 ft | 110 kts | 7° |
| 2026-05-01 13:42 | -1.40097 | -48.47835 | 465 ft | 107 kts | 15° |
| 2026-05-01 13:42 | -1.39606 | -48.47774 | 288 ft | 107 kts | 11° |
| 2026-05-01 13:43 | -1.38873 | -48.47701 | 48 ft | 99 kts | 11° |
| 2026-05-01 13:43 | -1.38285 | -48.47637 | 39 ft | 68 kts | 4° |
| 2026-05-01 13:43 | -1.37945 | -48.47625 | 36 ft | 16 kts | 347° |
| 2026-05-01 13:43 | -1.37944 | -48.47602 | 36 ft | 11 kts | 205° |
| 2026-05-01 13:44 | -1.38027 | -48.47621 | 37 ft | 13 kts | 186° |
| 2026-05-01 13:44 | -1.38107 | -48.47629 | 38 ft | 10 kts | 186° |
| 2026-05-01 13:44 | -1.38198 | -48.47638 | 39 ft | 18 kts | 187° |
| 2026-05-01 13:44 | -1.38329 | -48.47650 | 39 ft | 16 kts | 187° |
| 2026-05-01 13:45 | -1.38393 | -48.47615 | 39 ft | 8 kts | 102° |
| 2026-05-01 13:45 | -1.38396 | -48.47601 | 39 ft | 0 kts | 95° |
| 2026-05-01 13:45 | -1.38401 | -48.47525 | 39 ft | 18 kts | 94° |
| 2026-05-01 13:45 | -1.38400 | -48.47455 | 39 ft | 10 kts | 62° |
| 2026-05-01 13:46 | -1.38355 | -48.47441 | 39 ft | 7 kts | 339° |
| 2026-05-01 13:46 | -1.38348 | -48.47457 | 39 ft | 0 kts | 255° |